Time;durP1;ratioP1;P1;durP2;ratioP2;P2;SDS_P1;SDS_P2;PMS_P1;PMS_P2;Temp;Humidity;BMP_temperature;BMP_pressure;BME280_temperature;BME280_humidity;BME280_pressure;Samples;Min_cycle;Max_cycle;Signal;HPM_P1;HPM_P2
2023/07/14 00:00:31;;;;;;;10.38;6.57;;;;;;;;;;5095426;28;20047;-78
2023/07/14 00:02:58;;;;;;;10.55;6.43;;;;;;;;;;5095126;28;20036;-78
2023/07/14 00:05:27;;;;;;;10.02;6.28;;;;;;;;;;5096322;28;20123;-77
2023/07/14 00:07:56;;;;;;;11.32;7.10;;;;;;;;;;5092422;28;20045;-78
2023/07/14 00:10:26;;;;;;;10.23;7.57;;;;;;;;;;5066609;28;20048;-79
2023/07/14 00:12:52;;;;;;;10.40;7.60;;;;;;;;;;5096175;28;20088;-77
2023/07/14 00:15:20;;;;;;;13.60;8.70;;;;;;;;;;5081774;28;20049;-78
2023/07/14 00:17:48;;;;;;;15.38;9.18;;;;;;;;;;5069494;28;20059;-78
2023/07/14 00:20:26;;;;;;;14.07;8.27;;;;;;;;;;5082142;28;20546;-78
2023/07/14 00:22:52;;;;;;;12.50;8.07;;;;;;;;;;5095876;28;20040;-78
2023/07/14 00:25:19;;;;;;;13.98;9.10;;;;;;;;;;5095769;28;20080;-78
2023/07/14 00:27:45;;;;;;;13.90;9.10;;;;;;;;;;5096156;28;20036;-78
2023/07/14 00:30:22;;;;;;;12.32;9.07;;;;;;;;;;5089804;28;20106;-78
2023/07/14 00:32:49;;;;;;;12.40;9.05;;;;;;;;;;5087530;28;20130;-78
2023/07/14 00:35:20;;;;;;;12.32;9.80;;;;;;;;;;5092787;28;20048;-78
2023/07/14 00:37:47;;;;;;;15.07;10.50;;;;;;;;;;5080958;28;20044;-78
2023/07/14 00:40:18;;;;;;;14.90;9.07;;;;;;;;;;5077797;28;20452;-78
2023/07/14 00:42:46;;;;;;;11.95;10.23;;;;;;;;;;5084619;28;20528;-78
2023/07/14 00:45:16;;;;;;;16.70;10.07;;;;;;;;;;5094804;28;20048;-78
2023/07/14 00:47:42;;;;;;;12.20;9.90;;;;;;;;;;5094298;28;20040;-78
2023/07/14 00:50:16;;;;;;;15.20;11.35;;;;;;;;;;5093369;28;20038;-78
2023/07/14 00:52:46;;;;;;;12.40;10.40;;;;;;;;;;5089547;28;20040;-78
2023/07/14 00:55:24;;;;;;;14.38;10.77;;;;;;;;;;5076874;28;20521;-78
2023/07/14 00:57:53;;;;;;;14.80;10.85;;;;;;;;;;5082925;28;20051;-78
2023/07/14 01:00:23;;;;;;;17.52;11.35;;;;;;;;;;5084784;28;20099;-78
2023/07/14 01:02:49;;;;;;;18.13;12.82;;;;;;;;;;5093432;28;20086;-78
2023/07/14 01:05:16;;;;;;;15.52;12.48;;;;;;;;;;5092424;28;20040;-78
2023/07/14 01:07:43;;;;;;;17.20;13.05;;;;;;;;;;5087617;28;20119;-78
2023/07/14 01:10:13;;;;;;;19.17;13.48;;;;;;;;;;5084625;28;20044;-78
2023/07/14 01:12:40;;;;;;;15.80;12.82;;;;;;;;;;5092706;28;20036;-77
2023/07/14 01:15:08;;;;;;;17.65;13.90;;;;;;;;;;5094646;28;20051;-78
2023/07/14 01:17:36;;;;;;;16.73;13.40;;;;;;;;;;5093781;28;20134;-78
2023/07/14 01:20:06;;;;;;;19.90;13.32;;;;;;;;;;5094237;28;20466;-78
2023/07/14 01:22:45;;;;;;;15.18;13.57;;;;;;;;;;5057610;28;20048;-78
2023/07/14 01:25:11;;;;;;;16.98;13.82;;;;;;;;;;5087555;28;20199;-78
2023/07/14 01:27:37;;;;;;;17.73;14.05;;;;;;;;;;5082281;28;20041;-78
2023/07/14 01:30:03;;;;;;;17.15;14.43;;;;;;;;;;5093104;28;20127;-78
2023/07/14 01:32:37;;;;;;;20.77;13.73;;;;;;;;;;5095025;28;20057;-78
2023/07/14 01:35:05;;;;;;;14.07;12.63;;;;;;;;;;5090127;28;20079;-78
2023/07/14 01:37:35;;;;;;;17.42;13.60;;;;;;;;;;5053178;28;20047;-78
2023/07/14 01:40:02;;;;;;;17.38;14.50;;;;;;;;;;5070620;28;20076;-78
2023/07/14 01:42:29;;;;;;;15.43;13.23;;;;;;;;;;5067039;28;20123;-77
2023/07/14 01:44:55;;;;;;;16.75;13.65;;;;;;;;;;5074747;28;20041;-77
2023/07/14 01:47:22;;;;;;;18.20;13.65;;;;;;;;;;5074856;28;20406;-78
2023/07/14 01:49:50;;;;;;;19.23;13.73;;;;;;;;;;5089523;28;20049;-77
2023/07/14 01:52:27;;;;;;;17.30;13.07;;;;;;;;;;5092703;28;20162;-78
2023/07/14 01:54:56;;;;;;;15.07;12.32;;;;;;;;;;5099234;28;20095;-78
2023/07/14 01:57:24;;;;;;;17.55;12.63;;;;;;;;;;5098475;28;20040;-78
2023/07/14 02:00:11;;;;;;;17.35;13.10;;;;;;;;;;5096914;28;20107;-78
2023/07/14 02:02:38;;;;;;;17.75;12.75;;;;;;;;;;5099049;28;20044;-78
2023/07/14 02:05:14;;;;;;;14.73;12.63;;;;;;;;;;5080577;28;20123;-78
2023/07/14 02:07:40;;;;;;;14.55;12.82;;;;;;;;;;5078695;28;20135;-78
2023/07/14 02:10:13;;;;;;;16.98;12.43;;;;;;;;;;5099154;28;20075;-79
2023/07/14 02:12:42;;;;;;;16.02;13.48;;;;;;;;;;5100880;28;21831;-79
2023/07/14 02:15:10;;;;;;;15.45;12.52;;;;;;;;;;5100516;28;20114;-79
2023/07/14 02:17:37;;;;;;;15.75;12.43;;;;;;;;;;5096122;28;20060;-79
2023/07/14 02:20:06;;;;;;;16.55;13.00;;;;;;;;;;5100438;28;20513;-79
2023/07/14 02:22:33;;;;;;;15.60;12.40;;;;;;;;;;5081750;28;20071;-78
2023/07/14 02:25:02;;;;;;;17.13;13.50;;;;;;;;;;5095720;28;20482;-79
2023/07/14 02:27:28;;;;;;;19.33;12.82;;;;;;;;;;5098044;28;20048;-78
2023/07/14 02:29:59;;;;;;;19.83;12.82;;;;;;;;;;5097572;28;20040;-79
2023/07/14 02:32:37;;;;;;;14.93;11.70;;;;;;;;;;5079820;28;20044;-78
2023/07/14 02:35:06;;;;;;;16.02;12.43;;;;;;;;;;5097321;28;20097;-79
2023/07/14 02:37:41;;;;;;;21.40;13.18;;;;;;;;;;5088142;28;20079;-79
2023/07/14 02:40:08;;;;;;;15.93;11.88;;;;;;;;;;5089001;28;20071;-78
2023/07/14 02:42:38;;;;;;;18.25;12.65;;;;;;;;;;5101938;28;20036;-79
2023/07/14 02:45:05;;;;;;;15.97;11.93;;;;;;;;;;5102439;28;20059;-78
2023/07/14 02:47:33;;;;;;;17.20;13.02;;;;;;;;;;5078781;28;20087;-79
2023/07/14 02:49:59;;;;;;;18.33;12.48;;;;;;;;;;5081974;28;20521;-79
2023/07/14 02:52:25;;;;;;;17.83;11.50;;;;;;;;;;5101524;28;20127;-78
2023/07/14 02:54:51;;;;;;;18.42;11.80;;;;;;;;;;5101450;28;20082;-78
2023/07/14 02:57:17;;;;;;;17.80;11.85;;;;;;;;;;5082504;28;20044;-79
2023/07/14 02:59:44;;;;;;;14.70;11.98;;;;;;;;;;5097538;28;20048;-78
2023/07/14 03:02:10;;;;;;;14.57;12.18;;;;;;;;;;5065547;28;20044;-78
2023/07/14 03:04:36;;;;;;;16.83;12.50;;;;;;;;;;5099843;28;20438;-79
2023/07/14 03:07:03;;;;;;;14.43;11.60;;;;;;;;;;5088571;28;20081;-77
2023/07/14 03:09:29;;;;;;;16.25;11.45;;;;;;;;;;5098925;28;20127;-77
2023/07/14 03:11:55;;;;;;;18.15;10.65;;;;;;;;;;5099157;28;20082;-78
2023/07/14 03:14:21;;;;;;;16.55;10.90;;;;;;;;;;5081463;28;20130;-77
2023/07/14 03:16:47;;;;;;;16.13;10.52;;;;;;;;;;5068257;28;20040;-77
2023/07/14 03:19:13;;;;;;;14.73;11.25;;;;;;;;;;5090612;28;20112;-78
2023/07/14 03:21:40;;;;;;;17.52;10.30;;;;;;;;;;5091481;28;20086;-77
2023/07/14 03:24:06;;;;;;;16.45;10.35;;;;;;;;;;5096219;28;20513;-77
2023/07/14 03:26:32;;;;;;;15.43;10.35;;;;;;;;;;5101672;28;20378;-77
2023/07/14 03:28:58;;;;;;;16.00;11.07;;;;;;;;;;5097700;28;20657;-77
2023/07/14 03:31:24;;;;;;;18.90;10.18;;;;;;;;;;5097258;28;20114;-78
2023/07/14 03:33:50;;;;;;;14.35;9.95;;;;;;;;;;5093969;28;20048;-78
2023/07/14 03:36:20;;;;;;;18.42;11.00;;;;;;;;;;5098296;28;20105;-77
2023/07/14 03:38:46;;;;;;;15.18;9.90;;;;;;;;;;5099106;28;20056;-78
2023/07/14 03:41:14;;;;;;;14.48;9.88;;;;;;;;;;5098252;28;20048;-77
2023/07/14 03:43:40;;;;;;;17.65;10.27;;;;;;;;;;5097499;28;20051;-78
2023/07/14 03:46:07;;;;;;;15.55;9.35;;;;;;;;;;5099660;28;20047;-77
2023/07/14 03:48:33;;;;;;;15.30;10.35;;;;;;;;;;5101913;28;20044;-78
2023/07/14 03:51:00;;;;;;;15.90;10.18;;;;;;;;;;5097433;28;20406;-77
2023/07/14 03:53:26;;;;;;;16.45;9.75;;;;;;;;;;5098262;28;20090;-78
2023/07/14 03:55:53;;;;;;;17.20;9.57;;;;;;;;;;5097423;28;20134;-78
2023/07/14 03:58:19;;;;;;;15.15;9.38;;;;;;;;;;5090976;28;20047;-78
2023/07/14 04:00:45;;;;;;;14.65;8.98;;;;;;;;;;5095276;28;20126;-79
2023/07/14 04:03:11;;;;;;;12.63;9.52;;;;;;;;;;5093080;28;20048;-78
2023/07/14 04:05:37;;;;;;;14.70;10.10;;;;;;;;;;5080527;28;20127;-79
2023/07/14 04:08:04;;;;;;;12.25;9.63;;;;;;;;;;5092331;28;20125;-79
2023/07/14 04:10:30;;;;;;;14.48;8.85;;;;;;;;;;5094851;28;20477;-78
2023/07/14 04:12:59;;;;;;;17.15;9.38;;;;;;;;;;5100991;28;20054;-78
2023/07/14 04:15:25;;;;;;;18.63;10.15;;;;;;;;;;5096605;28;20039;-78
2023/07/14 04:17:51;;;;;;;13.95;10.25;;;;;;;;;;5096729;28;20056;-78
2023/07/14 04:20:17;;;;;;;18.73;9.27;;;;;;;;;;5077429;28;20055;-79
2023/07/14 04:22:43;;;;;;;18.98;9.40;;;;;;;;;;5077713;28;20140;-78
2023/07/14 04:25:11;;;;;;;14.90;9.18;;;;;;;;;;5075422;28;20080;-78
2023/07/14 04:27:38;;;;;;;10.90;8.25;;;;;;;;;;5073249;28;20079;-79
2023/07/14 04:30:04;;;;;;;14.68;9.35;;;;;;;;;;5095196;28;20121;-78
2023/07/14 04:32:31;;;;;;;14.73;9.55;;;;;;;;;;5094965;28;20123;-79
2023/07/14 04:34:57;;;;;;;14.32;9.18;;;;;;;;;;5088264;28;20051;-78
2023/07/14 04:37:23;;;;;;;16.73;8.60;;;;;;;;;;5091382;28;20052;-78
2023/07/14 04:39:49;;;;;;;15.38;10.38;;;;;;;;;;5094561;28;20084;-78
2023/07/14 04:42:15;;;;;;;13.57;10.02;;;;;;;;;;5094277;28;20501;-77
2023/07/14 04:44:41;;;;;;;11.95;9.93;;;;;;;;;;5094537;28;20077;-78
2023/07/14 04:47:08;;;;;;;15.40;9.77;;;;;;;;;;5076721;28;20131;-79
2023/07/14 04:49:35;;;;;;;15.40;10.98;;;;;;;;;;5088589;28;20043;-78
2023/07/14 04:52:01;;;;;;;16.38;10.68;;;;;;;;;;5095080;28;20040;-79
2023/07/14 04:54:27;;;;;;;16.50;12.43;;;;;;;;;;5059938;28;20047;-78
2023/07/14 04:56:53;;;;;;;13.95;11.70;;;;;;;;;;5093796;28;20048;-78
2023/07/14 04:59:19;;;;;;;15.93;11.73;;;;;;;;;;5093712;28;20166;-78
2023/07/14 05:01:45;;;;;;;15.10;11.45;;;;;;;;;;5094041;28;20124;-78
2023/07/14 05:04:12;;;;;;;20.95;12.95;;;;;;;;;;5093590;28;20083;-78
2023/07/14 05:06:38;;;;;;;16.77;12.43;;;;;;;;;;5094176;28;20398;-78
2023/07/14 05:09:04;;;;;;;16.75;12.80;;;;;;;;;;5092569;28;20067;-78
2023/07/14 05:11:30;;;;;;;13.50;11.98;;;;;;;;;;5092860;28;20044;-79
2023/07/14 05:13:56;;;;;;;18.98;14.02;;;;;;;;;;5093095;28;20040;-78
2023/07/14 05:16:22;;;;;;;18.27;13.18;;;;;;;;;;5086774;28;20044;-79
2023/07/14 05:18:48;;;;;;;16.02;13.00;;;;;;;;;;5081535;28;20147;-79
2023/07/14 05:21:15;;;;;;;16.50;13.95;;;;;;;;;;5076228;28;20044;-78
2023/07/14 05:23:41;;;;;;;16.65;14.95;;;;;;;;;;5090836;28;20615;-78
2023/07/14 05:26:07;;;;;;;18.98;15.40;;;;;;;;;;5075804;28;20059;-78
2023/07/14 05:28:33;;;;;;;18.50;16.35;;;;;;;;;;5099342;28;20048;-79
2023/07/14 05:31:00;;;;;;;20.08;15.63;;;;;;;;;;5075064;28;20105;-78
2023/07/14 05:33:26;;;;;;;20.23;15.77;;;;;;;;;;5074718;28;20114;-78
2023/07/14 05:35:52;;;;;;;20.00;16.50;;;;;;;;;;5078536;28;20040;-78
2023/07/14 05:38:18;;;;;;;21.23;15.80;;;;;;;;;;5079630;28;20052;-78
2023/07/14 05:40:51;;;;;;;19.08;15.18;;;;;;;;;;5088087;28;20045;-77
2023/07/14 05:43:17;;;;;;;20.48;14.65;;;;;;;;;;5066222;28;20063;-77
2023/07/14 05:45:47;;;;;;;18.88;14.65;;;;;;;;;;5087668;28;20506;-77
2023/07/14 05:48:14;;;;;;;18.70;15.27;;;;;;;;;;5086814;28;20048;-78
2023/07/14 05:50:40;;;;;;;17.05;15.07;;;;;;;;;;5089683;28;20040;-78
2023/07/14 05:53:07;;;;;;;18.67;14.88;;;;;;;;;;5069580;28;20086;-77
2023/07/14 05:55:33;;;;;;;18.15;15.43;;;;;;;;;;5086087;28;20048;-77
2023/07/14 05:57:59;;;;;;;18.65;14.35;;;;;;;;;;5082602;28;20131;-78
2023/07/14 06:00:25;;;;;;;18.42;15.00;;;;;;;;;;5082993;28;20638;-77
2023/07/14 06:02:51;;;;;;;17.60;15.80;;;;;;;;;;5065734;28;20048;-78
2023/07/14 06:05:19;;;;;;;19.77;15.43;;;;;;;;;;5080535;28;20051;-78
2023/07/14 06:07:45;;;;;;;19.60;16.15;;;;;;;;;;5084616;28;20051;-78
2023/07/14 06:10:12;;;;;;;16.73;14.98;;;;;;;;;;5063146;28;20055;-77
2023/07/14 06:12:39;;;;;;;18.60;13.70;;;;;;;;;;5076156;28;20505;-77
2023/07/14 06:15:05;;;;;;;16.80;15.02;;;;;;;;;;5085875;28;20044;-77
2023/07/14 06:17:31;;;;;;;17.77;15.02;;;;;;;;;;5115207;28;20076;-77
2023/07/14 06:19:58;;;;;;;17.55;14.32;;;;;;;;;;5096830;28;20044;-77
2023/07/14 06:22:24;;;;;;;18.42;15.02;;;;;;;;;;5094530;28;20413;-77
2023/07/14 06:24:51;;;;;;;17.30;14.75;;;;;;;;;;5093555;28;20055;-78
2023/07/14 06:27:17;;;;;;;17.95;14.15;;;;;;;;;;5094717;28;20493;-77
2023/07/14 06:29:45;;;;;;;17.25;14.32;;;;;;;;;;5075333;28;20150;-77
2023/07/14 06:32:11;;;;;;;17.17;13.35;;;;;;;;;;5092228;28;20097;-76
2023/07/14 06:34:37;;;;;;;16.50;12.13;;;;;;;;;;5093283;28;20048;-78
2023/07/14 06:37:03;;;;;;;16.17;12.52;;;;;;;;;;5093403;28;20100;-78
2023/07/14 06:39:30;;;;;;;15.32;13.02;;;;;;;;;;5095515;28;20052;-77
2023/07/14 06:41:57;;;;;;;18.58;12.07;;;;;;;;;;5077794;28;20126;-78
2023/07/14 06:44:23;;;;;;;15.48;11.88;;;;;;;;;;5093520;28;21127;-77
2023/07/14 06:46:49;;;;;;;19.40;11.63;;;;;;;;;;5093193;28;20080;-77
2023/07/14 06:49:15;;;;;;;13.13;11.43;;;;;;;;;;5089316;28;20048;-77
2023/07/14 06:51:41;;;;;;;16.48;11.00;;;;;;;;;;5075010;28;20059;-77
2023/07/14 06:54:07;;;;;;;12.88;10.55;;;;;;;;;;5093586;28;20075;-77
2023/07/14 06:56:33;;;;;;;13.05;10.48;;;;;;;;;;5093901;28;20044;-77
2023/07/14 06:59:02;;;;;;;11.73;9.60;;;;;;;;;;5093938;28;20051;-77
2023/07/14 07:01:28;;;;;;;13.13;9.00;;;;;;;;;;5093797;28;20059;-77
2023/07/14 07:03:54;;;;;;;12.60;8.70;;;;;;;;;;5075045;28;20117;-77
2023/07/14 07:06:20;;;;;;;12.10;7.43;;;;;;;;;;5076662;28;20044;-79
2023/07/14 07:08:46;;;;;;;10.65;7.20;;;;;;;;;;5098700;28;20047;-78
2023/07/14 07:11:13;;;;;;;9.90;6.80;;;;;;;;;;5082364;28;20083;-79
2023/07/14 07:13:39;;;;;;;12.18;6.30;;;;;;;;;;5093985;28;20036;-79
2023/07/14 07:16:05;;;;;;;10.15;5.88;;;;;;;;;;5095984;28;20060;-77
2023/07/14 07:18:32;;;;;;;11.55;6.25;;;;;;;;;;5081904;28;20048;-76
2023/07/14 07:20:58;;;;;;;9.75;5.13;;;;;;;;;;5093769;28;20052;-77
2023/07/14 07:23:24;;;;;;;9.60;5.43;;;;;;;;;;5076690;28;20134;-77
2023/07/14 07:25:52;;;;;;;8.32;4.60;;;;;;;;;;5092877;28;20040;-78
2023/07/14 07:28:19;;;;;;;11.15;5.25;;;;;;;;;;5091926;28;20050;-78
2023/07/14 07:30:45;;;;;;;8.55;5.22;;;;;;;;;;5081591;28;20048;-78
2023/07/14 07:33:12;;;;;;;11.18;5.05;;;;;;;;;;5077057;28;20045;-78
2023/07/14 07:35:39;;;;;;;8.57;4.63;;;;;;;;;;5075597;28;20049;-78
2023/07/14 07:38:05;;;;;;;8.10;4.40;;;;;;;;;;5077392;28;20135;-77
2023/07/14 07:40:31;;;;;;;9.77;4.63;;;;;;;;;;5094654;28;20051;-78
2023/07/14 07:42:57;;;;;;;8.45;4.40;;;;;;;;;;5094423;28;20070;-77
2023/07/14 07:45:24;;;;;;;14.10;4.95;;;;;;;;;;5093995;28;20044;-77
2023/07/14 07:47:50;;;;;;;19.90;4.97;;;;;;;;;;5112267;28;20043;-78
2023/07/14 07:50:16;;;;;;;9.18;4.25;;;;;;;;;;5113999;28;20059;-78
2023/07/14 07:52:42;;;;;;;9.45;4.45;;;;;;;;;;5081585;28;20063;-77
2023/07/14 07:55:08;;;;;;;22.23;5.20;;;;;;;;;;5081633;28;20097;-78
2023/07/14 07:57:34;;;;;;;11.23;4.63;;;;;;;;;;5079597;28;20053;-77
2023/07/14 08:00:00;;;;;;;8.27;4.05;;;;;;;;;;5082830;28;20506;-77
2023/07/14 08:02:26;;;;;;;10.73;4.60;;;;;;;;;;5084549;28;20040;-77
2023/07/14 08:04:53;;;;;;;10.90;4.70;;;;;;;;;;5087769;28;20487;-77
2023/07/14 08:07:19;;;;;;;10.18;4.40;;;;;;;;;;5086189;28;20040;-78
2023/07/14 08:09:45;;;;;;;8.10;4.70;;;;;;;;;;5085094;28;20044;-78
2023/07/14 08:12:11;;;;;;;9.85;4.60;;;;;;;;;;5098024;28;20092;-78
2023/07/14 08:15:03;;;;;;;11.48;5.18;;;;;;;;;;5099449;28;20046;-78
2023/07/14 08:17:34;;;;;;;8.38;4.55;;;;;;;;;;5078035;28;20117;-77
2023/07/14 08:20:00;;;;;;;8.77;3.72;;;;;;;;;;5096765;28;20501;-77
2023/07/14 08:22:26;;;;;;;9.40;5.35;;;;;;;;;;5096866;28;20119;-78
2023/07/14 08:24:55;;;;;;;8.38;4.90;;;;;;;;;;5098771;28;20044;-78
2023/07/14 08:27:21;;;;;;;8.48;4.25;;;;;;;;;;5097297;28;20117;-77
2023/07/14 08:29:47;;;;;;;8.25;4.20;;;;;;;;;;5073403;28;20050;-77
2023/07/14 08:32:15;;;;;;;11.00;4.90;;;;;;;;;;5096088;28;20047;-78
2023/07/14 08:34:41;;;;;;;8.52;4.15;;;;;;;;;;5079643;28;20062;-77
2023/07/14 08:37:07;;;;;;;9.38;4.00;;;;;;;;;;5097310;28;20043;-77
2023/07/14 08:39:33;;;;;;;10.80;3.90;;;;;;;;;;5074194;28;20036;-75
2023/07/14 08:42:02;;;;;;;7.45;3.78;;;;;;;;;;5089115;28;20340;-77
2023/07/14 08:44:34;;;;;;;7.53;3.38;;;;;;;;;;5094766;28;20513;-77
2023/07/14 08:47:07;;;;;;;9.30;3.80;;;;;;;;;;5089355;28;20069;-76
2023/07/14 08:49:33;;;;;;;9.43;4.00;;;;;;;;;;5092607;28;20398;-77
2023/07/14 08:52:03;;;;;;;8.50;3.60;;;;;;;;;;5096677;28;20090;-77
2023/07/14 08:54:32;;;;;;;6.95;3.35;;;;;;;;;;5096640;28;20044;-77
2023/07/14 08:56:58;;;;;;;6.57;2.90;;;;;;;;;;5096299;28;20071;-77
2023/07/14 08:59:35;;;;;;;8.40;3.17;;;;;;;;;;5077944;28;20047;-77
2023/07/14 09:02:03;;;;;;;8.80;3.10;;;;;;;;;;5096628;28;20036;-78
2023/07/14 09:04:36;;;;;;;5.22;2.80;;;;;;;;;;5097709;28;20052;-77
2023/07/14 09:07:03;;;;;;;7.75;3.13;;;;;;;;;;5084610;28;20144;-78
2023/07/14 09:09:33;;;;;;;8.45;3.35;;;;;;;;;;5080205;28;20044;-78
2023/07/14 09:12:02;;;;;;;8.85;3.20;;;;;;;;;;5102298;28;20072;-79
2023/07/14 09:14:44;;;;;;;6.88;3.17;;;;;;;;;;5080445;28;20056;-79
2023/07/14 09:17:17;;;;;;;6.13;2.65;;;;;;;;;;5080994;28;20495;-79
2023/07/14 09:20:00;;;;;;;7.45;2.72;;;;;;;;;;5100443;28;20040;-78
2023/07/14 09:22:45;;;;;;;7.40;2.55;;;;;;;;;;5073543;28;20051;-78
2023/07/14 09:25:18;;;;;;;6.93;2.70;;;;;;;;;;5099322;28;20048;-78
2023/07/14 09:27:46;;;;;;;7.60;2.90;;;;;;;;;;5098536;28;20123;-78
2023/07/14 09:30:18;;;;;;;6.22;2.30;;;;;;;;;;5098089;28;20047;-77
2023/07/14 09:32:51;;;;;;;6.25;2.45;;;;;;;;;;5097685;28;20048;-80
2023/07/14 09:35:21;;;;;;;7.20;2.72;;;;;;;;;;5090594;28;20044;-77
2023/07/14 09:37:50;;;;;;;6.40;2.75;;;;;;;;;;5075145;28;20045;-78
2023/07/14 09:40:25;;;;;;;8.98;2.63;;;;;;;;;;5078824;28;20063;-78
2023/07/14 09:42:53;;;;;;;6.13;2.20;;;;;;;;;;5075881;28;20370;-76
2023/07/14 09:45:21;;;;;;;6.70;2.25;;;;;;;;;;5074865;28;20623;-77
2023/07/14 09:47:50;;;;;;;7.40;2.50;;;;;;;;;;5090057;28;20105;-78
2023/07/14 09:50:18;;;;;;;7.85;2.63;;;;;;;;;;5094831;28;20105;-78
2023/07/14 09:52:55;;;;;;;7.97;2.60;;;;;;;;;;5098477;28;20048;-78
2023/07/14 09:55:22;;;;;;;8.60;2.83;;;;;;;;;;5095242;28;20040;-78
2023/07/14 09:57:51;;;;;;;6.93;2.25;;;;;;;;;;5078365;28;20470;-79
2023/07/14 10:00:39;;;;;;;7.13;2.58;;;;;;;;;;5078526;28;20052;-77
2023/07/14 10:03:11;;;;;;;6.10;2.40;;;;;;;;;;5095159;28;20058;-77
2023/07/14 10:05:43;;;;;;;6.82;2.50;;;;;;;;;;5081112;28;20147;-77
2023/07/14 10:08:28;;;;;;;7.30;2.38;;;;;;;;;;5075911;28;20127;-77
2023/07/14 10:11:14;;;;;;;6.22;2.22;;;;;;;;;;5076380;28;20061;-78
2023/07/14 10:13:44;;;;;;;5.80;2.20;;;;;;;;;;5093587;28;20099;-78
2023/07/14 10:16:17;;;;;;;6.75;2.30;;;;;;;;;;5096397;28;20070;-78
2023/07/14 10:18:54;;;;;;;6.63;2.50;;;;;;;;;;5096910;28;20758;-78
2023/07/14 10:21:28;;;;;;;5.03;2.38;;;;;;;;;;5094613;28;20062;-77
2023/07/14 10:24:01;;;;;;;5.68;2.50;;;;;;;;;;5083471;28;20036;-78
2023/07/14 10:26:28;;;;;;;7.05;2.65;;;;;;;;;;5076634;28;20048;-77
2023/07/14 10:28:55;;;;;;;7.65;2.97;;;;;;;;;;5090369;28;20171;-78
2023/07/14 10:31:37;;;;;;;6.43;2.92;;;;;;;;;;5075992;28;20041;-77
2023/07/14 10:34:22;;;;;;;6.85;2.58;;;;;;;;;;5084410;28;20096;-78
2023/07/14 10:36:51;;;;;;;7.38;2.65;;;;;;;;;;5073458;28;20036;-78
2023/07/14 10:39:27;;;;;;;7.95;3.10;;;;;;;;;;5076486;28;20040;-78
2023/07/14 10:41:53;;;;;;;7.75;3.08;;;;;;;;;;5088449;28;20397;-78
2023/07/14 10:44:26;;;;;;;8.40;2.70;;;;;;;;;;5095943;28;20048;-78
2023/07/14 10:46:54;;;;;;;6.03;2.50;;;;;;;;;;5094810;28;20517;-79
2023/07/14 10:49:23;;;;;;;6.78;2.90;;;;;;;;;;5078684;28;20065;-81
2023/07/14 10:51:51;;;;;;;7.88;2.70;;;;;;;;;;5083479;28;20044;-77
2023/07/14 10:54:21;;;;;;;7.63;2.95;;;;;;;;;;5095912;28;20071;-80
2023/07/14 10:56:49;;;;;;;6.68;2.50;;;;;;;;;;5076653;28;20127;-79
2023/07/14 10:59:23;;;;;;;6.15;2.42;;;;;;;;;;5076165;28;20542;-78
2023/07/14 11:02:08;;;;;;;6.95;2.88;;;;;;;;;;5076802;28;20123;-78
2023/07/14 11:04:45;;;;;;;6.28;2.72;;;;;;;;;;5087870;28;20044;-80
2023/07/14 11:07:22;;;;;;;7.00;2.83;;;;;;;;;;5090871;28;20044;-78
2023/07/14 11:09:48;;;;;;;6.70;2.90;;;;;;;;;;5091215;28;20059;-76
2023/07/14 11:12:34;;;;;;;7.03;2.70;;;;;;;;;;5085695;28;20052;-76
2023/07/14 11:15:04;;;;;;;7.63;2.30;;;;;;;;;;5088536;28;20099;-78
2023/07/14 11:17:30;;;;;;;7.32;2.65;;;;;;;;;;5075553;28;20097;-78
2023/07/14 11:20:04;;;;;;;8.38;2.90;;;;;;;;;;5094503;28;20067;-78
2023/07/14 11:22:35;;;;;;;7.95;2.70;;;;;;;;;;5093582;28;20048;-78
2023/07/14 11:25:10;;;;;;;6.97;2.97;;;;;;;;;;5094609;28;20044;-78
2023/07/14 11:27:38;;;;;;;7.10;2.67;;;;;;;;;;5083598;28;20550;-78
2023/07/14 11:30:09;;;;;;;6.18;2.10;;;;;;;;;;5095490;28;20056;-76
2023/07/14 11:33:00;;;;;;;7.10;2.85;;;;;;;;;;5086995;28;20496;-78
2023/07/14 11:35:30;;;;;;;5.80;2.55;;;;;;;;;;5101016;28;20052;-81
2023/07/14 11:37:56;;;;;;;;;;;;;;;;;;5101860;28;20078;-79
2023/07/14 11:40:23;;;;;;;6.47;2.47;;;;;;;;;;5080423;28;19920;-78
2023/07/14 11:42:57;;;;;;;6.18;2.63;;;;;;;;;;5081626;28;20048;-77
2023/07/14 11:45:25;;;;;;;5.63;2.60;;;;;;;;;;5083384;28;20044;-78
2023/07/14 11:47:51;;;;;;;5.75;2.50;;;;;;;;;;5079478;28;20048;-78
2023/07/14 11:50:17;;;;;;;6.55;2.58;;;;;;;;;;5061956;28;20365;-78
2023/07/14 11:53:02;;;;;;;6.20;2.80;;;;;;;;;;5083887;28;20043;-78
2023/07/14 11:55:30;;;;;;;5.95;2.38;;;;;;;;;;5099363;28;20048;-77
2023/07/14 11:58:16;;;;;;;7.20;2.50;;;;;;;;;;5097498;28;20183;-78
2023/07/14 12:00:46;;;;;;;6.57;2.70;;;;;;;;;;5094224;28;20083;-79
2023/07/14 12:03:32;;;;;;;5.75;2.50;;;;;;;;;;5080329;28;20119;-79
2023/07/14 12:06:14;;;;;;;7.95;2.75;;;;;;;;;;5053047;28;20483;-78
2023/07/14 12:08:42;;;;;;;5.95;2.45;;;;;;;;;;5081646;28;20494;-79
2023/07/14 12:11:27;;;;;;;8.10;2.90;;;;;;;;;;5100015;28;20055;-78
2023/07/14 12:13:54;;;;;;;4.95;2.40;;;;;;;;;;5075326;28;20072;-78
2023/07/14 12:16:23;;;;;;;6.07;2.85;;;;;;;;;;5090586;28;20502;-78
2023/07/14 12:19:09;;;;;;;6.75;2.28;;;;;;;;;;5087607;28;20057;-78
2023/07/14 12:21:45;;;;;;;6.43;2.75;;;;;;;;;;5073492;28;20071;-78
2023/07/14 12:24:18;;;;;;;8.02;2.60;;;;;;;;;;5100221;28;20499;-77
2023/07/14 12:26:52;;;;;;;6.97;2.80;;;;;;;;;;5093896;28;20378;-77
2023/07/14 12:29:19;;;;;;;6.78;2.65;;;;;;;;;;5086435;28;20441;-78
2023/07/14 12:31:55;;;;;;;5.55;2.45;;;;;;;;;;5093901;28;20127;-78
2023/07/14 12:34:28;;;;;;;5.38;2.40;;;;;;;;;;5079116;28;20077;-77
2023/07/14 12:36:54;;;;;;;6.07;2.53;;;;;;;;;;5085801;28;20501;-77
2023/07/14 12:39:20;;;;;;;8.18;2.70;;;;;;;;;;5084851;28;20048;-78
2023/07/14 12:41:47;;;;;;;5.80;2.50;;;;;;;;;;5086995;28;20131;-78
2023/07/14 12:44:30;;;;;;;8.77;2.42;;;;;;;;;;5082513;28;20051;-79
2023/07/14 12:46:56;;;;;;;7.18;2.60;;;;;;;;;;5076394;28;20144;-78
2023/07/14 12:49:38;;;;;;;6.80;2.75;;;;;;;;;;5077267;28;20051;-80
2023/07/14 12:52:12;;;;;;;7.35;2.70;;;;;;;;;;5060556;28;20040;-79
2023/07/14 12:54:42;;;;;;;9.98;2.53;;;;;;;;;;5089746;28;20036;-80
2023/07/14 12:57:11;;;;;;;7.22;2.90;;;;;;;;;;5079746;28;20105;-78
2023/07/14 12:59:37;;;;;;;6.38;2.60;;;;;;;;;;5080877;28;20388;-79
2023/07/14 13:02:04;;;;;;;6.90;2.63;;;;;;;;;;5085918;28;20120;-78
2023/07/14 13:04:32;;;;;;;5.93;2.80;;;;;;;;;;5092755;28;20108;-79
2023/07/14 13:07:03;;;;;;;6.20;2.47;;;;;;;;;;5096525;28;20133;-77
2023/07/14 13:09:29;;;;;;;5.50;2.80;;;;;;;;;;5094880;28;20047;-77
2023/07/14 13:11:56;;;;;;;5.78;2.47;;;;;;;;;;5096247;28;20036;-76
2023/07/14 13:14:34;;;;;;;5.65;2.50;;;;;;;;;;5096107;28;20043;-78
2023/07/14 13:17:01;;;;;;;5.80;2.58;;;;;;;;;;5086232;28;20040;-79
2023/07/14 13:19:32;;;;;;;5.70;2.65;;;;;;;;;;5092285;28;20406;-77
2023/07/14 13:21:59;;;;;;;8.00;2.65;;;;;;;;;;5067402;28;20055;-77
2023/07/14 13:24:26;;;;;;;6.82;2.70;;;;;;;;;;5071628;28;20123;-78
2023/07/14 13:26:53;;;;;;;5.03;2.42;;;;;;;;;;5095333;28;20485;-78
2023/07/14 13:29:20;;;;;;;4.55;1.95;;;;;;;;;;5077872;28;20075;-77
2023/07/14 13:31:47;;;;;;;6.57;2.40;;;;;;;;;;5084769;28;20081;-77
2023/07/14 13:34:28;;;;;;;6.00;2.60;;;;;;;;;;5092511;28;20074;-77
2023/07/14 13:36:54;;;;;;;7.22;2.63;;;;;;;;;;5083602;28;20489;-77
2023/07/14 13:39:22;;;;;;;5.95;2.30;;;;;;;;;;5083135;28;20056;-78
2023/07/14 13:41:49;;;;;;;5.68;2.53;;;;;;;;;;5084217;28;20048;-78
2023/07/14 13:44:35;;;;;;;6.30;2.40;;;;;;;;;;5069642;28;20059;-78
2023/07/14 13:47:11;;;;;;;5.57;2.40;;;;;;;;;;5064747;28;20064;-78
2023/07/14 13:49:38;;;;;;;5.82;2.47;;;;;;;;;;5085543;28;20123;-78
2023/07/14 13:52:09;;;;;;;4.90;2.28;;;;;;;;;;5081052;28;20067;-77
2023/07/14 13:54:40;;;;;;;6.25;2.28;;;;;;;;;;5081147;28;20482;-77
2023/07/14 13:57:10;;;;;;;5.03;2.20;;;;;;;;;;5083182;28;20048;-77
2023/07/14 13:59:36;;;;;;;7.05;2.35;;;;;;;;;;5080116;28;20098;-78
2023/07/14 14:02:11;;;;;;;5.43;2.30;;;;;;;;;;5081972;28;20421;-79
2023/07/14 14:04:38;;;;;;;5.07;2.30;;;;;;;;;;5084809;28;20047;-77
2023/07/14 14:07:04;;;;;;;5.38;2.30;;;;;;;;;;5082973;28;20051;-78
2023/07/14 14:09:30;;;;;;;5.80;2.53;;;;;;;;;;5083206;28;20536;-78
2023/07/14 14:11:56;;;;;;;5.32;2.40;;;;;;;;;;5083622;28;20051;-78
2023/07/14 14:14:23;;;;;;;5.63;2.50;;;;;;;;;;5085198;28;20562;-77
2023/07/14 14:16:49;;;;;;;6.55;2.50;;;;;;;;;;5083333;28;20498;-78
2023/07/14 14:19:18;;;;;;;6.43;2.72;;;;;;;;;;5083087;28;20121;-77
2023/07/14 14:21:44;;;;;;;7.00;2.85;;;;;;;;;;5083551;28;20037;-78
2023/07/14 14:24:10;;;;;;;7.20;3.00;;;;;;;;;;5081583;28;20046;-79
2023/07/14 14:26:36;;;;;;;6.68;2.78;;;;;;;;;;5083840;28;20122;-77
2023/07/14 14:29:04;;;;;;;7.68;3.00;;;;;;;;;;5080585;28;20040;-78
2023/07/14 14:31:31;;;;;;;7.43;2.88;;;;;;;;;;5084895;28;20048;-78
2023/07/14 14:33:58;;;;;;;6.43;2.97;;;;;;;;;;5063413;28;20036;-77
2023/07/14 14:36:25;;;;;;;11.25;3.13;;;;;;;;;;5068641;28;20446;-77
2023/07/14 14:38:51;;;;;;;6.03;2.85;;;;;;;;;;5065526;28;20040;-77
2023/07/14 14:41:28;;;;;;;7.03;2.90;;;;;;;;;;5086400;28;20055;-77